createdAt,value
2018-07-31T00:02:12.953Z,16.00
2018-07-31T00:04:40.876Z,15.93
2018-07-31T00:07:08.755Z,16.17
2018-07-31T00:09:36.390Z,16.77
2018-07-31T00:12:04.302Z,16.13
2018-07-31T00:14:32.183Z,15.57
2018-07-31T00:16:59.833Z,15.73
2018-07-31T00:19:27.476Z,15.77
2018-07-31T00:21:55.404Z,16.03
2018-07-31T00:24:22.994Z,15.90
2018-07-31T00:26:50.807Z,16.07
2018-07-31T00:29:18.723Z,15.77
2018-07-31T00:31:46.442Z,16.17
2018-07-31T00:34:14.192Z,15.37
2018-07-31T00:36:42.152Z,15.60
2018-07-31T00:39:10.830Z,15.33
2018-07-31T00:41:38.700Z,16.43
2018-07-31T00:44:06.590Z,16.30
2018-07-31T00:46:34.203Z,17.10
2018-07-31T00:49:01.993Z,15.93
2018-07-31T00:51:29.934Z,16.73
2018-07-31T00:53:57.624Z,16.63
2018-07-31T00:56:25.477Z,16.33
2018-07-31T00:58:53.387Z,15.93
2018-07-31T01:01:21.252Z,15.50
2018-07-31T01:03:49.087Z,16.10
2018-07-31T01:06:21.544Z,15.83
2018-07-31T01:08:49.415Z,16.20
2018-07-31T01:11:17.213Z,15.33
2018-07-31T01:13:45.029Z,15.23
2018-07-31T01:16:12.694Z,16.20
2018-07-31T01:18:40.406Z,15.77
2018-07-31T01:21:08.109Z,16.77
2018-07-31T01:23:35.691Z,15.70
2018-07-31T01:26:03.541Z,15.63
2018-07-31T01:28:31.412Z,15.00
2018-07-31T01:30:59.052Z,16.23
2018-07-31T01:33:26.862Z,15.67
2018-07-31T01:35:54.783Z,15.70
2018-07-31T01:38:22.420Z,15.50
2018-07-31T01:40:50.313Z,16.17
2018-07-31T01:43:18.117Z,16.13
2018-07-31T01:45:45.745Z,16.47
2018-07-31T01:48:13.518Z,16.07
2018-07-31T01:50:41.412Z,16.60
2018-07-31T01:53:09.058Z,15.17
2018-07-31T01:55:36.766Z,16.03
2018-07-31T01:58:04.542Z,15.80
2018-07-31T02:00:32.153Z,16.13
2018-07-31T02:02:59.976Z,15.70
2018-07-31T02:05:27.776Z,15.67
2018-07-31T02:07:55.380Z,15.97
2018-07-31T02:10:23.309Z,16.03
2018-07-31T02:12:51.089Z,15.77
2018-07-31T02:15:18.745Z,15.87
2018-07-31T02:17:46.476Z,14.90
2018-07-31T02:20:14.331Z,15.60
2018-07-31T02:22:41.960Z,15.43
2018-07-31T02:25:09.848Z,14.83
2018-07-31T02:27:37.648Z,14.83
2018-07-31T02:30:20.216Z,15.03
2018-07-31T02:32:48.122Z,14.53
2018-07-31T02:35:15.875Z,14.23
2018-07-31T02:37:43.702Z,15.37
2018-07-31T02:40:11.597Z,14.60
2018-07-31T02:42:39.324Z,14.80
2018-07-31T02:45:09.042Z,15.93
2018-07-31T02:47:37.186Z,15.50
2018-07-31T02:53:04.052Z,14.10
2018-07-31T02:55:31.647Z,14.33
2018-07-31T02:57:59.302Z,14.60
2018-07-31T03:00:27.357Z,14.03
2018-07-31T03:02:54.985Z,13.80
2018-07-31T03:05:22.649Z,14.30
2018-07-31T03:07:50.579Z,13.77
2018-07-31T03:10:18.241Z,13.40
2018-07-31T03:12:45.849Z,13.70
2018-07-31T03:15:14.007Z,13.57
2018-07-31T03:17:41.641Z,12.97
2018-07-31T03:20:09.362Z,13.87
2018-07-31T03:22:37.230Z,13.87
2018-07-31T03:25:05.072Z,13.60
2018-07-31T03:27:32.808Z,13.40
2018-07-31T03:30:00.974Z,13.33
2018-07-31T03:32:28.548Z,13.57
2018-07-31T03:34:56.157Z,12.60
2018-07-31T03:37:24.113Z,13.30
2018-07-31T03:39:51.777Z,13.80
2018-07-31T03:42:19.378Z,13.33
2018-07-31T03:44:47.327Z,14.37
2018-07-31T03:47:14.993Z,14.10
2018-07-31T03:49:42.676Z,13.80
2018-07-31T03:52:10.798Z,13.57
2018-07-31T03:54:38.465Z,14.00
2018-07-31T03:57:06.308Z,13.53
2018-07-31T03:59:34.276Z,14.63
2018-07-31T04:02:01.936Z,14.07
2018-07-31T04:04:29.615Z,14.53
2018-07-31T04:06:57.776Z,13.47
2018-07-31T04:09:25.469Z,14.07
2018-07-31T04:11:53.135Z,14.03
2018-07-31T04:14:21.054Z,14.73
2018-07-31T04:16:48.676Z,14.10
2018-07-31T04:19:16.356Z,14.07
2018-07-31T04:21:44.323Z,14.17
2018-07-31T04:24:11.970Z,13.97
2018-07-31T04:26:39.587Z,15.20
2018-07-31T04:29:07.447Z,14.50
2018-07-31T04:31:35.194Z,14.60
2018-07-31T04:34:02.879Z,13.80
2018-07-31T04:36:30.832Z,14.67
2018-07-31T04:38:58.439Z,14.53
2018-07-31T04:41:26.086Z,14.93
2018-07-31T04:43:54.116Z,14.90
2018-07-31T04:46:21.776Z,14.43
2018-07-31T04:48:49.410Z,14.83
2018-07-31T04:51:17.504Z,14.67
2018-07-31T04:53:45.137Z,13.77
2018-07-31T04:56:12.733Z,14.27
2018-07-31T04:58:40.769Z,13.83
2018-07-31T05:01:08.418Z,14.33
2018-07-31T05:03:36.082Z,14.17
2018-07-31T05:06:04.130Z,14.60
2018-07-31T05:08:31.759Z,15.00
2018-07-31T05:10:59.441Z,14.20
2018-07-31T05:13:27.545Z,15.50
2018-07-31T05:15:55.101Z,14.23
2018-07-31T05:18:22.790Z,15.13
2018-07-31T05:20:50.541Z,15.27
2018-07-31T05:23:19.149Z,14.40
2018-07-31T05:25:46.760Z,15.80
2018-07-31T05:28:14.905Z,13.90
2018-07-31T05:30:42.584Z,15.00
2018-07-31T05:33:10.167Z,14.83
2018-07-31T05:35:38.021Z,15.53
2018-07-31T05:38:05.710Z,16.67
2018-07-31T05:40:33.374Z,15.00
2018-07-31T05:43:01.487Z,15.47
2018-07-31T05:45:29.108Z,15.40
2018-07-31T05:47:56.667Z,16.10
2018-07-31T05:50:24.669Z,16.43
2018-07-31T05:52:52.847Z,16.50
2018-07-31T05:55:20.509Z,15.70
2018-07-31T05:57:48.506Z,15.43
2018-07-31T06:00:16.162Z,16.00
2018-07-31T06:02:43.835Z,16.87
2018-07-31T06:05:11.728Z,15.67
2018-07-31T06:07:39.406Z,15.40
2018-07-31T06:10:07.579Z,15.77
2018-07-31T06:12:35.486Z,15.93
2018-07-31T06:15:03.281Z,16.07
2018-07-31T06:17:30.949Z,15.77
2018-07-31T06:19:58.947Z,15.33
2018-07-31T06:22:26.605Z,15.73
2018-07-31T06:24:54.232Z,14.67
2018-07-31T06:27:22.252Z,15.73
2018-07-31T06:29:49.918Z,14.60
2018-07-31T06:32:17.573Z,15.57
2018-07-31T06:34:46.513Z,15.53
2018-07-31T06:37:14.136Z,15.03
2018-07-31T06:39:42.114Z,14.30
2018-07-31T06:42:10.443Z,15.00
2018-07-31T06:44:38.330Z,14.33
2018-07-31T06:47:06.218Z,14.70
2018-07-31T06:49:34.168Z,13.57
2018-07-31T06:52:01.751Z,14.77
2018-07-31T06:54:29.382Z,14.03
2018-07-31T06:56:57.419Z,13.77
2018-07-31T06:59:25.040Z,13.80
2018-07-31T07:01:52.736Z,14.60
2018-07-31T07:04:20.654Z,13.47
2018-07-31T07:06:48.382Z,12.70
2018-07-31T07:09:15.984Z,14.17
2018-07-31T07:11:44.057Z,13.70
2018-07-31T07:14:11.774Z,13.40
2018-07-31T07:16:39.459Z,13.80
2018-07-31T07:19:07.556Z,13.77
2018-07-31T07:21:35.246Z,13.20
2018-07-31T07:24:02.930Z,14.10
2018-07-31T07:26:31.015Z,13.30
2018-07-31T07:28:58.642Z,14.80
2018-07-31T07:31:26.316Z,14.30
2018-07-31T07:33:54.307Z,15.07
2018-07-31T07:36:21.896Z,15.87
2018-07-31T07:38:49.569Z,15.00
2018-07-31T07:41:17.448Z,15.27
2018-07-31T07:43:45.087Z,14.63
2018-07-31T07:46:12.751Z,16.07
2018-07-31T07:48:40.619Z,15.53
2018-07-31T07:51:08.287Z,15.27
2018-07-31T07:53:35.837Z,15.63
2018-07-31T07:56:03.953Z,14.97
2018-07-31T07:58:31.540Z,15.90
2018-07-31T08:00:59.262Z,14.87
2018-07-31T08:03:27.105Z,16.63
2018-07-31T08:05:54.722Z,15.67
2018-07-31T08:08:22.392Z,15.13
2018-07-31T08:10:50.355Z,15.40
2018-07-31T08:13:17.958Z,14.83
2018-07-31T08:15:45.603Z,15.33
2018-07-31T08:18:13.490Z,15.53
2018-07-31T08:20:41.116Z,15.27
2018-07-31T08:23:08.751Z,14.93
2018-07-31T08:25:36.674Z,15.33
2018-07-31T08:28:04.435Z,15.03
2018-07-31T08:30:32.056Z,15.60
2018-07-31T08:33:00.098Z,16.00
2018-07-31T08:35:27.997Z,15.80
2018-07-31T08:37:55.799Z,16.50
2018-07-31T08:40:23.895Z,16.07
2018-07-31T08:42:51.529Z,16.13
2018-07-31T08:45:19.264Z,15.53
2018-07-31T08:47:47.392Z,16.03
2018-07-31T08:50:15.039Z,15.93
2018-07-31T08:52:42.697Z,16.53
2018-07-31T08:55:10.756Z,16.20
2018-07-31T08:57:38.396Z,14.67
2018-07-31T09:00:07.546Z,15.03
2018-07-31T09:02:35.728Z,14.90
2018-07-31T09:05:03.582Z,13.77
2018-07-31T09:07:31.281Z,14.53
2018-07-31T09:09:59.385Z,14.20
2018-07-31T09:12:27.022Z,14.00
2018-07-31T09:14:54.571Z,13.67
2018-07-31T09:17:22.545Z,13.80
2018-07-31T09:19:50.136Z,12.63
2018-07-31T09:22:18.179Z,12.83
2018-07-31T09:24:46.257Z,12.07
2018-07-31T09:27:13.880Z,11.90
2018-07-31T09:29:41.670Z,12.67
2018-07-31T09:32:09.538Z,12.70
2018-07-31T09:34:42.645Z,12.60
2018-07-31T09:37:10.434Z,12.37
2018-07-31T09:39:38.276Z,12.03
2018-07-31T09:42:05.985Z,12.10
2018-07-31T09:44:33.862Z,13.20
2018-07-31T09:47:01.761Z,13.53
2018-07-31T09:49:29.454Z,11.80
2018-07-31T09:51:57.308Z,11.77
2018-07-31T09:54:25.189Z,11.83
2018-07-31T09:56:52.818Z,11.27
2018-07-31T09:59:20.565Z,10.33
2018-07-31T10:01:48.425Z,11.77
2018-07-31T10:04:16.110Z,12.03
2018-07-31T10:06:43.874Z,12.30
2018-07-31T10:09:11.638Z,11.90
2018-07-31T10:11:39.278Z,12.50
2018-07-31T10:14:07.625Z,11.80
2018-07-31T10:16:35.381Z,11.47
2018-07-31T10:19:02.969Z,11.00
2018-07-31T10:21:30.742Z,11.43
2018-07-31T10:23:58.598Z,10.07
2018-07-31T10:26:26.215Z,11.13
2018-07-31T10:28:54.092Z,11.00
2018-07-31T10:31:21.862Z,10.83
2018-07-31T10:33:49.427Z,10.93
2018-07-31T10:36:17.151Z,9.90
2018-07-31T10:38:45.055Z,10.67
2018-07-31T10:41:12.629Z,9.63
2018-07-31T10:43:40.431Z,10.13
2018-07-31T10:46:08.299Z,10.57
2018-07-31T10:48:35.923Z,11.37
2018-07-31T10:51:03.840Z,11.07
2018-07-31T10:53:31.855Z,11.00
2018-07-31T10:55:59.438Z,10.20
2018-07-31T10:58:27.330Z,10.67
2018-07-31T11:00:55.146Z,10.23
2018-07-31T11:03:22.695Z,10.70
2018-07-31T11:05:50.514Z,10.70
2018-07-31T11:08:18.381Z,10.13
2018-07-31T11:10:45.997Z,10.73
2018-07-31T11:13:13.737Z,10.13
2018-07-31T11:15:41.603Z,10.43
2018-07-31T11:18:09.308Z,10.27
2018-07-31T11:20:37.095Z,10.80
2018-07-31T11:23:04.926Z,10.97
2018-07-31T11:25:32.553Z,10.30
2018-07-31T11:28:00.505Z,10.50
2018-07-31T11:30:28.292Z,9.60
2018-07-31T11:32:55.992Z,10.53
2018-07-31T11:35:23.777Z,10.00
2018-07-31T11:37:51.490Z,10.73
2018-07-31T11:40:19.159Z,9.80
2018-07-31T11:42:46.822Z,10.37
2018-07-31T11:45:14.722Z,10.07
2018-07-31T11:47:42.401Z,9.97
2018-07-31T11:50:10.242Z,10.33
2018-07-31T11:52:38.043Z,10.30
2018-07-31T11:55:05.699Z,10.40
2018-07-31T11:57:33.413Z,10.27
2018-07-31T12:00:01.338Z,9.70
2018-07-31T12:02:28.934Z,9.97
2018-07-31T12:04:56.790Z,10.20
2018-07-31T12:07:24.709Z,9.83
2018-07-31T12:09:52.748Z,9.87
2018-07-31T12:12:20.475Z,10.37
2018-07-31T12:14:48.202Z,10.23
2018-07-31T12:17:15.816Z,9.87
2018-07-31T12:19:43.605Z,9.50
2018-07-31T12:22:11.304Z,9.23
2018-07-31T12:24:38.846Z,9.23
2018-07-31T12:27:06.847Z,9.70
2018-07-31T12:29:34.590Z,9.73
2018-07-31T12:32:02.263Z,9.23
2018-07-31T12:34:30.100Z,9.63
2018-07-31T12:36:57.956Z,9.80
2018-07-31T12:39:25.537Z,9.77
2018-07-31T12:41:53.376Z,10.17
2018-07-31T12:47:03.884Z,9.50
2018-07-31T12:49:31.465Z,9.30
2018-07-31T12:51:59.101Z,9.63
2018-07-31T12:54:27.122Z,9.80
2018-07-31T12:56:54.694Z,9.50
2018-07-31T12:59:22.385Z,9.87
2018-07-31T13:01:50.527Z,9.60
2018-07-31T13:04:18.179Z,10.00
2018-07-31T13:06:46.003Z,9.87
2018-07-31T13:09:13.751Z,9.27
2018-07-31T13:11:41.409Z,9.97
2018-07-31T13:14:09.236Z,9.93
2018-07-31T13:16:36.946Z,9.57
2018-07-31T13:19:04.599Z,9.80
2018-07-31T13:21:32.420Z,10.50
2018-07-31T13:24:00.174Z,9.93
2018-07-31T13:26:27.806Z,9.67
2018-07-31T13:28:55.524Z,9.77
2018-07-31T13:31:23.183Z,9.53
2018-07-31T13:33:50.795Z,9.50
2018-07-31T13:36:18.831Z,9.77
2018-07-31T13:38:46.590Z,10.03
2018-07-31T13:41:14.321Z,8.80
2018-07-31T13:43:42.250Z,9.10
2018-07-31T13:46:40.568Z,8.97
2018-07-31T13:49:08.299Z,8.83
2018-07-31T13:51:35.943Z,9.47
2018-07-31T13:54:03.960Z,8.50
2018-07-31T13:56:31.683Z,8.47
2018-07-31T13:58:59.286Z,8.83
2018-07-31T14:01:26.978Z,9.03
2018-07-31T14:03:54.842Z,8.90
2018-07-31T14:06:22.512Z,8.90
2018-07-31T14:08:50.282Z,8.60
2018-07-31T14:11:17.993Z,9.20
2018-07-31T14:13:45.654Z,8.97
2018-07-31T14:16:13.433Z,9.00
2018-07-31T14:18:41.137Z,9.60
2018-07-31T14:21:08.940Z,10.00
2018-07-31T14:23:36.697Z,9.33
2018-07-31T14:26:04.534Z,9.20
2018-07-31T14:28:32.121Z,9.40
2018-07-31T14:30:59.919Z,10.43
2018-07-31T14:33:27.625Z,9.90
2018-07-31T14:35:55.252Z,9.93
2018-07-31T14:41:02.880Z,9.83
2018-07-31T14:43:30.538Z,10.47
2018-07-31T14:45:58.128Z,10.80
2018-07-31T14:48:26.170Z,10.17
2018-07-31T14:50:53.692Z,10.10
2018-07-31T14:53:21.252Z,9.73
2018-07-31T14:55:49.227Z,10.00
2018-07-31T14:58:16.805Z,10.00
2018-07-31T15:00:44.493Z,10.60
2018-07-31T15:03:12.261Z,10.00
2018-07-31T15:05:39.869Z,10.07
2018-07-31T15:08:07.531Z,10.63
2018-07-31T15:10:35.449Z,10.00
2018-07-31T15:13:03.109Z,9.07
2018-07-31T15:15:30.686Z,9.43
2018-07-31T15:17:58.638Z,9.00
2018-07-31T15:20:26.198Z,9.27
2018-07-31T15:22:53.806Z,8.83
2018-07-31T15:25:21.926Z,9.23
2018-07-31T15:27:49.561Z,9.13
2018-07-31T15:30:17.193Z,8.87
2018-07-31T15:32:45.173Z,9.27
2018-07-31T15:35:12.840Z,9.30
2018-07-31T15:37:40.505Z,9.20
2018-07-31T15:40:08.484Z,8.40
2018-07-31T15:42:36.105Z,9.37
2018-07-31T15:45:04.104Z,9.20
2018-07-31T15:47:32.164Z,9.13
2018-07-31T15:49:59.718Z,9.70
2018-07-31T15:52:27.341Z,9.27
2018-07-31T15:54:55.382Z,9.37
2018-07-31T15:57:22.948Z,10.23
2018-07-31T15:59:50.564Z,10.03
2018-07-31T16:02:18.349Z,9.60
2018-07-31T16:04:45.882Z,10.87
2018-07-31T16:07:13.531Z,10.07
2018-07-31T16:09:41.302Z,10.10
2018-07-31T16:12:08.992Z,10.60
2018-07-31T16:14:51.724Z,9.73
2018-07-31T16:17:19.315Z,9.20
2018-07-31T16:19:46.937Z,10.30
2018-07-31T16:22:15.007Z,10.27
2018-07-31T16:24:42.923Z,10.63
2018-07-31T16:27:10.578Z,10.00
2018-07-31T16:29:38.493Z,10.10
2018-07-31T16:32:06.204Z,10.63
2018-07-31T16:34:33.845Z,10.23
2018-07-31T16:37:01.976Z,9.83
2018-07-31T16:39:29.587Z,10.70
2018-07-31T16:41:57.377Z,11.03
2018-07-31T16:44:25.317Z,9.97
2018-07-31T16:46:52.907Z,10.83
2018-07-31T16:49:20.567Z,10.70
2018-07-31T16:51:48.549Z,11.03
2018-07-31T16:54:16.163Z,11.10
2018-07-31T16:56:43.765Z,11.23
2018-07-31T16:59:11.672Z,10.80
2018-07-31T17:01:39.263Z,11.40
2018-07-31T17:04:06.931Z,11.30
2018-07-31T17:06:34.780Z,11.33
2018-07-31T17:09:02.451Z,12.30
2018-07-31T17:11:30.205Z,12.80
2018-07-31T17:13:58.189Z,11.50
2018-07-31T17:16:25.793Z,12.03
2018-07-31T17:18:53.403Z,12.80
2018-07-31T17:21:21.172Z,12.47
2018-07-31T17:23:48.762Z,13.00
2018-07-31T17:26:16.340Z,12.60
2018-07-31T17:28:44.282Z,12.27
2018-07-31T17:31:11.965Z,11.60
2018-07-31T17:33:39.537Z,12.20
2018-07-31T17:36:07.599Z,12.13
2018-07-31T17:38:35.236Z,12.37
2018-07-31T17:41:02.919Z,11.80
2018-07-31T17:43:30.854Z,11.37
2018-07-31T17:45:58.465Z,11.97
2018-07-31T17:48:26.129Z,10.97
2018-07-31T17:50:54.189Z,12.03
2018-07-31T17:53:21.825Z,11.73
2018-07-31T17:55:49.681Z,11.47
2018-07-31T17:58:17.595Z,11.30
2018-07-31T18:00:45.265Z,10.70
2018-07-31T18:03:12.885Z,10.90
2018-07-31T18:05:40.815Z,11.37
2018-07-31T18:08:08.526Z,10.83
2018-07-31T18:10:36.154Z,11.33
2018-07-31T18:13:04.121Z,10.10
2018-07-31T18:16:02.353Z,10.37
2018-07-31T18:18:30.298Z,9.20
2018-07-31T18:20:58.119Z,9.30
2018-07-31T18:23:25.836Z,9.37
2018-07-31T18:25:53.759Z,9.03
2018-07-31T18:28:21.385Z,9.70
2018-07-31T18:30:48.948Z,9.30
2018-07-31T18:33:16.828Z,8.30
2018-07-31T18:35:44.477Z,8.77
2018-07-31T18:38:12.104Z,8.00
2018-07-31T18:40:42.528Z,8.33
2018-07-31T18:43:10.205Z,8.40
2018-07-31T18:45:37.819Z,8.30
2018-07-31T18:48:05.821Z,8.23
2018-07-31T18:50:33.508Z,7.47
2018-07-31T18:53:01.136Z,7.43
2018-07-31T18:55:29.034Z,7.60
2018-07-31T18:57:56.898Z,7.33
2018-07-31T19:00:24.509Z,7.60
2018-07-31T19:02:52.627Z,7.57
2018-07-31T19:05:20.249Z,7.60
2018-07-31T19:07:47.823Z,7.10
2018-07-31T19:10:15.784Z,7.37
2018-07-31T19:12:43.417Z,7.73
2018-07-31T19:15:11.093Z,8.10
2018-07-31T19:17:39.076Z,7.27
2018-07-31T19:20:06.742Z,7.43
2018-07-31T19:22:34.431Z,7.63
2018-07-31T19:25:02.596Z,7.70
2018-07-31T19:27:30.286Z,7.73
2018-07-31T19:29:57.936Z,7.43
2018-07-31T19:32:25.940Z,6.50
2018-07-31T19:34:53.626Z,7.07
2018-07-31T19:37:21.292Z,6.90
2018-07-31T19:39:49.214Z,7.20
2018-07-31T19:42:17.003Z,6.87
2018-07-31T19:44:44.518Z,6.83
2018-07-31T19:47:12.548Z,6.93
2018-07-31T19:49:40.141Z,7.40
2018-07-31T19:52:07.851Z,6.63
2018-07-31T19:54:36.021Z,7.00
2018-07-31T19:57:03.683Z,6.33
2018-07-31T19:59:31.301Z,6.97
2018-07-31T20:01:59.306Z,6.27
2018-07-31T20:04:26.906Z,6.60
2018-07-31T20:06:54.502Z,6.43
2018-07-31T20:09:24.561Z,6.33
2018-07-31T20:11:52.436Z,5.90
2018-07-31T20:14:20.063Z,5.80
2018-07-31T20:16:47.805Z,6.17
2018-07-31T20:19:15.455Z,5.80
2018-07-31T20:21:43.125Z,6.50
2018-07-31T20:24:11.033Z,6.43
2018-07-31T20:26:38.720Z,5.80
2018-07-31T20:29:06.301Z,5.70
2018-07-31T20:31:34.158Z,6.07
2018-07-31T20:34:01.779Z,5.97
2018-07-31T20:36:29.390Z,6.17
2018-07-31T20:38:57.231Z,5.33
2018-07-31T20:41:24.891Z,5.97
2018-07-31T20:43:52.600Z,5.70
2018-07-31T20:46:20.471Z,5.30
2018-07-31T20:48:48.103Z,5.80
2018-07-31T20:51:15.783Z,5.50
2018-07-31T20:53:44.164Z,5.93
2018-07-31T20:56:18.499Z,5.47
2018-07-31T20:58:46.385Z,5.53
2018-07-31T21:01:14.548Z,5.33
2018-07-31T21:03:42.281Z,5.40
2018-07-31T21:06:10.037Z,5.70
2018-07-31T21:08:37.611Z,5.80
2018-07-31T21:11:05.357Z,5.67
2018-07-31T21:13:33.488Z,5.93
2018-07-31T21:16:01.158Z,5.13
2018-07-31T21:18:28.829Z,5.50
2018-07-31T21:20:56.857Z,5.13
2018-07-31T21:23:24.738Z,5.23
2018-07-31T21:25:52.394Z,5.57
2018-07-31T21:28:20.497Z,5.27
2018-07-31T21:30:48.267Z,5.07
2018-07-31T21:33:15.879Z,5.57
2018-07-31T21:35:43.722Z,5.13
2018-07-31T21:38:11.393Z,4.57
2018-07-31T21:40:38.998Z,5.10
2018-07-31T21:43:06.771Z,5.40
2018-07-31T21:45:34.415Z,4.97
2018-07-31T21:48:02.091Z,5.47
2018-07-31T21:50:30.099Z,5.23
2018-07-31T21:52:57.676Z,5.30
2018-07-31T21:55:25.268Z,4.80
2018-07-31T21:57:53.133Z,5.30
2018-07-31T22:00:20.825Z,5.67
2018-07-31T22:02:48.523Z,5.63
2018-07-31T22:05:16.454Z,5.57
2018-07-31T22:07:44.036Z,6.10
2018-07-31T22:10:11.741Z,4.77
2018-07-31T22:12:39.620Z,5.57
2018-07-31T22:15:07.206Z,5.50
2018-07-31T22:17:34.847Z,5.20
2018-07-31T22:20:02.778Z,5.43
2018-07-31T22:22:30.351Z,5.30
2018-07-31T22:24:57.995Z,5.47
2018-07-31T22:27:25.735Z,5.23
2018-07-31T22:29:53.281Z,5.47
2018-07-31T22:32:20.934Z,5.20
2018-07-31T22:34:48.756Z,5.03
2018-07-31T22:37:16.369Z,4.73
2018-07-31T22:39:44.017Z,4.93
2018-07-31T22:42:11.998Z,4.93
2018-07-31T22:44:39.664Z,5.40
2018-07-31T22:47:07.220Z,5.10
2018-07-31T22:49:35.164Z,5.20
2018-07-31T22:52:02.754Z,5.70
2018-07-31T22:54:30.623Z,5.80
2018-07-31T22:56:58.349Z,5.60
2018-07-31T22:59:25.972Z,5.70
2018-07-31T23:01:53.614Z,5.57
2018-07-31T23:04:21.583Z,6.10
2018-07-31T23:06:49.113Z,5.90
2018-07-31T23:09:16.722Z,7.20
2018-07-31T23:11:44.882Z,6.07
2018-07-31T23:14:12.566Z,5.87
2018-07-31T23:16:40.195Z,5.93
2018-07-31T23:19:08.049Z,5.63
2018-07-31T23:21:35.821Z,6.10
2018-07-31T23:24:03.442Z,6.57
2018-07-31T23:26:31.461Z,6.53
2018-07-31T23:28:58.991Z,5.37
2018-07-31T23:31:26.595Z,6.60
2018-07-31T23:33:54.606Z,6.40
2018-07-31T23:36:22.249Z,6.40
2018-07-31T23:38:49.869Z,6.40
2018-07-31T23:41:17.940Z,6.47
2018-07-31T23:43:45.599Z,6.40
2018-07-31T23:46:13.230Z,5.90
2018-07-31T23:48:40.975Z,6.37
2018-07-31T23:51:08.598Z,6.67
2018-07-31T23:53:36.300Z,6.73
2018-07-31T23:56:04.308Z,6.60
2018-07-31T23:58:31.910Z,5.93
